sensor_id;sensor_type;location;lat;lon;timestamp;pressure;altitude;pressure_sealevel;temperature;humidity
30682;BME280;17439;48.092;11.842;2022-08-19T00:00:43;94943.97;;;22.15;58.82
30682;BME280;17439;48.092;11.842;2022-08-19T00:03:28;94948.72;;;22.18;59.06
30682;BME280;17439;48.092;11.842;2022-08-19T00:06:14;94950.66;;;22.21;58.89
30682;BME280;17439;48.092;11.842;2022-08-19T00:09:04;94933.31;;;22.24;58.99
30682;BME280;17439;48.092;11.842;2022-08-19T00:11:51;94923.81;;;22.25;58.72
30682;BME280;17439;48.092;11.842;2022-08-19T00:14:38;94922.66;;;22.26;58.53
30682;BME280;17439;48.092;11.842;2022-08-19T00:17:24;94914.38;;;22.26;58.37
30682;BME280;17439;48.092;11.842;2022-08-19T00:20:12;94913.16;;;22.27;58.58
30682;BME280;17439;48.092;11.842;2022-08-19T00:22:59;94906.88;;;22.26;58.18
30682;BME280;17439;48.092;11.842;2022-08-19T00:25:44;94906.88;;;22.26;58.06
30682;BME280;17439;48.092;11.842;2022-08-19T00:28:33;94908.47;;;22.24;57.83
30682;BME280;17439;48.092;11.842;2022-08-19T00:31:21;94915.16;;;22.23;58.10
30682;BME280;17439;48.092;11.842;2022-08-19T00:34:06;94905.31;;;22.22;57.72
30682;BME280;17439;48.092;11.842;2022-08-19T00:36:52;94913.19;;;22.20;58.02
30682;BME280;17439;48.092;11.842;2022-08-19T00:39:37;94914.00;;;22.17;58.33
30682;BME280;17439;48.092;11.842;2022-08-19T00:42:23;94902.97;;;22.17;58.15
30682;BME280;17439;48.092;11.842;2022-08-19T00:45:12;94895.06;;;22.19;58.52
30682;BME280;17439;48.092;11.842;2022-08-19T00:47:57;94891.13;;;22.20;58.17
30682;BME280;17439;48.092;11.842;2022-08-19T00:50:44;94894.25;;;22.22;58.33
30682;BME280;17439;48.092;11.842;2022-08-19T00:53:36;94880.88;;;22.24;58.38
30682;BME280;17439;48.092;11.842;2022-08-19T00:56:22;94869.00;;;22.27;58.12
30682;BME280;17439;48.092;11.842;2022-08-19T00:59:08;94865.06;;;22.28;58.34
30682;BME280;17439;48.092;11.842;2022-08-19T01:01:53;94864.28;;;22.27;58.00
30682;BME280;17439;48.092;11.842;2022-08-19T01:04:39;94880.84;;;22.27;58.07
30682;BME280;17439;48.092;11.842;2022-08-19T01:07:27;94880.03;;;22.27;58.04
30682;BME280;17439;48.092;11.842;2022-08-19T01:10:23;94867.81;;;22.28;58.83
30682;BME280;17439;48.092;11.842;2022-08-19T01:13:09;94848.91;;;22.30;58.45
30682;BME280;17439;48.092;11.842;2022-08-19T01:15:59;94850.88;;;22.30;58.72
30682;BME280;17439;48.092;11.842;2022-08-19T01:18:46;94865.88;;;22.32;57.89
30682;BME280;17439;48.092;11.842;2022-08-19T01:21:36;94871.41;;;22.32;58.66
30682;BME280;17439;48.092;11.842;2022-08-19T01:24:22;94878.47;;;22.33;58.07
30682;BME280;17439;48.092;11.842;2022-08-19T01:27:08;94898.19;;;22.35;58.63
30682;BME280;17439;48.092;11.842;2022-08-19T01:29:54;94917.91;;;22.37;58.50
30682;BME280;17439;48.092;11.842;2022-08-19T01:32:41;94933.28;;;22.38;58.76
30682;BME280;17439;48.092;11.842;2022-08-19T01:35:30;94950.25;;;22.40;59.49
30682;BME280;17439;48.092;11.842;2022-08-19T01:38:25;94932.88;;;22.43;58.97
30682;BME280;17439;48.092;11.842;2022-08-19T01:41:11;94923.41;;;22.48;58.44
30682;BME280;17439;48.092;11.842;2022-08-19T01:43:57;94917.84;;;22.52;58.19
30682;BME280;17439;48.092;11.842;2022-08-19T01:47:02;94929.69;;;22.56;58.14
30682;BME280;17439;48.092;11.842;2022-08-19T01:49:47;94920.97;;;22.61;57.93
30682;BME280;17439;48.092;11.842;2022-08-19T01:52:35;94918.59;;;22.63;58.13
30682;BME280;17439;48.092;11.842;2022-08-19T01:55:21;94923.72;;;22.64;57.74
30682;BME280;17439;48.092;11.842;2022-08-19T01:58:17;94917.41;;;22.64;58.84
30682;BME280;17439;48.092;11.842;2022-08-19T02:01:05;94909.91;;;22.64;57.58
30682;BME280;17439;48.092;11.842;2022-08-19T02:03:51;94914.66;;;22.64;58.03
30682;BME280;17439;48.092;11.842;2022-08-19T02:06:41;94926.47;;;22.64;57.89
30682;BME280;17439;48.092;11.842;2022-08-19T02:09:26;94932.78;;;22.65;57.86
30682;BME280;17439;48.092;11.842;2022-08-19T02:12:11;94931.22;;;22.64;57.62
30682;BME280;17439;48.092;11.842;2022-08-19T02:14:58;94948.97;;;22.63;57.73
30682;BME280;17439;48.092;11.842;2022-08-19T02:17:44;94940.31;;;22.61;57.54
30682;BME280;17439;48.092;11.842;2022-08-19T02:20:30;94942.25;;;22.60;57.30
30682;BME280;17439;48.092;11.842;2022-08-19T02:23:16;94937.56;;;22.57;57.70
30682;BME280;17439;48.092;11.842;2022-08-19T02:26:02;94940.72;;;22.56;57.55
30682;BME280;17439;48.092;11.842;2022-08-19T02:28:47;94940.72;;;22.52;57.74
30682;BME280;17439;48.092;11.842;2022-08-19T02:31:32;94935.59;;;22.51;57.50
30682;BME280;17439;48.092;11.842;2022-08-19T02:34:18;94914.72;;;22.50;57.23
30682;BME280;17439;48.092;11.842;2022-08-19T02:37:03;94923.41;;;22.48;57.24
30682;BME280;17439;48.092;11.842;2022-08-19T02:39:48;94901.28;;;22.44;57.21
30682;BME280;17439;48.092;11.842;2022-08-19T02:42:34;94883.16;;;22.43;57.07
30682;BME280;17439;48.092;11.842;2022-08-19T02:45:20;94880.81;;;22.42;57.24
30682;BME280;17439;48.092;11.842;2022-08-19T02:48:06;94876.09;;;22.39;57.55
30682;BME280;17439;48.092;11.842;2022-08-19T02:51:05;94880.03;;;22.38;57.34
30682;BME280;17439;48.092;11.842;2022-08-19T02:53:51;94882.44;;;22.32;57.35
30682;BME280;17439;48.092;11.842;2022-08-19T02:56:38;94883.22;;;22.29;57.42
30682;BME280;17439;48.092;11.842;2022-08-19T02:59:24;94903.31;;;22.26;57.50
30682;BME280;17439;48.092;11.842;2022-08-19T03:02:09;94897.03;;;22.22;57.30
30682;BME280;17439;48.092;11.842;2022-08-19T03:04:54;94892.69;;;22.21;57.79
30682;BME280;17439;48.092;11.842;2022-08-19T03:07:39;94887.59;;;22.19;57.81
30682;BME280;17439;48.092;11.842;2022-08-19T03:10:24;94881.66;;;22.17;57.41
30682;BME280;17439;48.092;11.842;2022-08-19T03:13:14;94884.81;;;22.16;57.82
30682;BME280;17439;48.092;11.842;2022-08-19T03:16:04;94886.81;;;22.12;58.17
30682;BME280;17439;48.092;11.842;2022-08-19T03:18:50;94880.88;;;22.09;57.61
30682;BME280;17439;48.092;11.842;2022-08-19T03:21:36;94889.59;;;22.04;58.16
30682;BME280;17439;48.092;11.842;2022-08-19T03:24:22;94894.72;;;22.02;57.96
30682;BME280;17439;48.092;11.842;2022-08-19T03:27:07;94902.63;;;22.00;58.44
30682;BME280;17439;48.092;11.842;2022-08-19T03:29:53;94901.03;;;21.99;58.38
30682;BME280;17439;48.092;11.842;2022-08-19T03:32:38;94904.56;;;22.00;58.46
30682;BME280;17439;48.092;11.842;2022-08-19T03:35:29;94908.13;;;22.00;58.33
30682;BME280;17439;48.092;11.842;2022-08-19T03:38:14;94920.75;;;22.05;58.48
30682;BME280;17439;48.092;11.842;2022-08-19T03:41:04;94923.09;;;22.06;58.97
30682;BME280;17439;48.092;11.842;2022-08-19T03:43:51;94918.34;;;22.10;58.06
30682;BME280;17439;48.092;11.842;2022-08-19T03:46:36;94921.91;;;22.15;58.44
30682;BME280;17439;48.092;11.842;2022-08-19T03:49:28;94918.72;;;22.20;58.30
30682;BME280;17439;48.092;11.842;2022-08-19T03:52:14;94923.06;;;22.24;58.27
30682;BME280;17439;48.092;11.842;2022-08-19T03:55:00;94910.41;;;22.27;57.96
30682;BME280;17439;48.092;11.842;2022-08-19T03:57:45;94913.97;;;22.31;57.84
30682;BME280;17439;48.092;11.842;2022-08-19T04:00:31;94914.34;;;22.33;57.77
30682;BME280;17439;48.092;11.842;2022-08-19T04:03:16;94921.47;;;22.34;57.55
30682;BME280;17439;48.092;11.842;2022-08-19T04:06:16;94907.66;;;22.34;57.84
30682;BME280;17439;48.092;11.842;2022-08-19T04:09:04;94914.75;;;22.35;58.17
30682;BME280;17439;48.092;11.842;2022-08-19T04:11:52;94906.88;;;22.37;57.94
30682;BME280;17439;48.092;11.842;2022-08-19T04:14:38;94918.69;;;22.38;57.87
30682;BME280;17439;48.092;11.842;2022-08-19T04:17:24;94911.97;;;22.39;57.84
30682;BME280;17439;48.092;11.842;2022-08-19T04:20:10;94923.41;;;22.41;57.87
30682;BME280;17439;48.092;11.842;2022-08-19T04:22:56;94921.84;;;22.43;57.66
30682;BME280;17439;48.092;11.842;2022-08-19T04:25:44;94923.78;;;22.46;57.84
30682;BME280;17439;48.092;11.842;2022-08-19T04:28:29;94929.28;;;22.50;57.69
30682;BME280;17439;48.092;11.842;2022-08-19T04:31:20;94933.63;;;22.55;57.61
30682;BME280;17439;48.092;11.842;2022-08-19T04:34:08;94939.94;;;22.59;57.82
30682;BME280;17439;48.092;11.842;2022-08-19T04:36:55;94946.59;;;22.61;57.65
30682;BME280;17439;48.092;11.842;2022-08-19T04:39:41;94951.31;;;22.64;57.66
30682;BME280;17439;48.092;11.842;2022-08-19T04:42:26;94944.59;;;22.69;57.14
30682;BME280;17439;48.092;11.842;2022-08-19T04:45:15;94951.31;;;22.72;57.07
30682;BME280;17439;48.092;11.842;2022-08-19T04:48:01;94949.31;;;22.72;57.36
30682;BME280;17439;48.092;11.842;2022-08-19T04:51:09;94950.50;;;22.75;57.42
30682;BME280;17439;48.092;11.842;2022-08-19T04:53:55;94951.72;;;22.67;57.56
30682;BME280;17439;48.092;11.842;2022-08-19T04:56:40;94957.19;;;22.77;57.10
30682;BME280;17439;48.092;11.842;2022-08-19T04:59:25;94959.16;;;22.80;56.79
30682;BME280;17439;48.092;11.842;2022-08-19T05:02:11;94964.28;;;22.82;56.79
30682;BME280;17439;48.092;11.842;2022-08-19T05:04:58;94962.28;;;22.82;56.91
30682;BME280;17439;48.092;11.842;2022-08-19T05:07:43;94972.94;;;22.84;56.78
30682;BME280;17439;48.092;11.842;2022-08-19T05:10:28;94972.94;;;22.88;56.87
30682;BME280;17439;48.092;11.842;2022-08-19T05:13:15;94971.75;;;22.89;56.84
30682;BME280;17439;48.092;11.842;2022-08-19T05:16:01;94965.84;;;22.87;56.85
30682;BME280;17439;48.092;11.842;2022-08-19T05:18:47;94959.50;;;22.90;56.54
30682;BME280;17439;48.092;11.842;2022-08-19T05:21:34;94962.66;;;22.92;56.61
30682;BME280;17439;48.092;11.842;2022-08-19T05:24:22;94969.38;;;22.91;56.53
30682;BME280;17439;48.092;11.842;2022-08-19T05:27:08;94970.94;;;22.92;56.60
30682;BME280;17439;48.092;11.842;2022-08-19T05:29:53;94962.66;;;22.92;56.26
30682;BME280;17439;48.092;11.842;2022-08-19T05:32:39;94968.97;;;22.92;56.37
30682;BME280;17439;48.092;11.842;2022-08-19T05:35:25;94957.94;;;22.92;56.49
30682;BME280;17439;48.092;11.842;2022-08-19T05:38:10;94953.94;;;22.93;56.40
30682;BME280;17439;48.092;11.842;2022-08-19T05:40:57;94953.19;;;22.93;56.82
30682;BME280;17439;48.092;11.842;2022-08-19T05:43:42;94953.94;;;22.93;56.68
30682;BME280;17439;48.092;11.842;2022-08-19T05:46:28;94950.00;;;22.94;57.11
30682;BME280;17439;48.092;11.842;2022-08-19T05:49:15;94942.13;;;22.93;57.07
30682;BME280;17439;48.092;11.842;2022-08-19T05:52:06;94946.06;;;22.92;57.15
30682;BME280;17439;48.092;11.842;2022-08-19T05:54:52;94939.34;;;22.93;56.83
30682;BME280;17439;48.092;11.842;2022-08-19T05:57:39;94940.53;;;22.92;56.93
30682;BME280;17439;48.092;11.842;2022-08-19T06:00:24;94944.09;;;22.89;57.37
30682;BME280;17439;48.092;11.842;2022-08-19T06:03:09;94948.47;;;22.86;57.13
30682;BME280;17439;48.092;11.842;2022-08-19T06:05:57;94953.22;;;22.82;57.40
30682;BME280;17439;48.092;11.842;2022-08-19T06:08:43;94953.63;;;22.80;57.27
30682;BME280;17439;48.092;11.842;2022-08-19T06:14:24;94967.09;;;22.75;58.41
30682;BME280;17439;48.092;11.842;2022-08-19T06:17:12;94966.69;;;22.73;58.36
30682;BME280;17439;48.092;11.842;2022-08-19T06:19:58;94957.63;;;22.72;58.39
30682;BME280;17439;48.092;11.842;2022-08-19T06:22:46;94954.84;;;22.72;58.87
30682;BME280;17439;48.092;11.842;2022-08-19T06:25:31;94954.13;;;22.61;58.83
30682;BME280;17439;48.092;11.842;2022-08-19T06:28:17;94956.44;;;22.70;58.19
30682;BME280;17439;48.092;11.842;2022-08-19T06:31:06;94952.88;;;22.69;58.94
30682;BME280;17439;48.092;11.842;2022-08-19T06:33:52;94941.47;;;22.67;58.41
30682;BME280;17439;48.092;11.842;2022-08-19T06:36:41;94949.34;;;22.65;58.66
30682;BME280;17439;48.092;11.842;2022-08-19T06:39:31;94960.03;;;22.63;58.61
30682;BME280;17439;48.092;11.842;2022-08-19T06:42:16;94960.81;;;22.60;58.35
30682;BME280;17439;48.092;11.842;2022-08-19T06:45:02;94960.03;;;22.59;58.65
30682;BME280;17439;48.092;11.842;2022-08-19T06:47:53;94970.31;;;22.59;59.35
30682;BME280;17439;48.092;11.842;2022-08-19T06:50:39;94972.25;;;22.58;58.86
30682;BME280;17439;48.092;11.842;2022-08-19T06:53:25;94971.09;;;22.59;59.00
30682;BME280;17439;48.092;11.842;2022-08-19T06:56:15;94975.00;;;22.62;59.05
30682;BME280;17439;48.092;11.842;2022-08-19T06:59:05;94965.97;;;22.51;58.75
30682;BME280;17439;48.092;11.842;2022-08-19T07:01:53;94961.19;;;22.62;58.94
30682;BME280;17439;48.092;11.842;2022-08-19T07:04:38;94958.44;;;22.62;58.82
30682;BME280;17439;48.092;11.842;2022-08-19T07:07:26;94958.84;;;22.60;58.89
30682;BME280;17439;48.092;11.842;2022-08-19T07:10:12;94950.97;;;22.59;59.31
30682;BME280;17439;48.092;11.842;2022-08-19T07:12:57;94945.44;;;22.59;59.31
30682;BME280;17439;48.092;11.842;2022-08-19T07:15:42;94937.53;;;22.61;59.68
30682;BME280;17439;48.092;11.842;2022-08-19T07:18:28;94928.84;;;22.66;59.83
30682;BME280;17439;48.092;11.842;2022-08-19T07:21:31;94920.13;;;22.71;61.00
30682;BME280;17439;48.092;11.842;2022-08-19T07:24:23;94912.56;;;22.82;60.46
30682;BME280;17439;48.092;11.842;2022-08-19T07:27:09;94904.97;;;22.94;60.45
30682;BME280;17439;48.092;11.842;2022-08-19T07:29:59;94893.09;;;23.04;60.35
30682;BME280;17439;48.092;11.842;2022-08-19T07:32:45;94900.94;;;23.16;60.59
30682;BME280;17439;48.092;11.842;2022-08-19T07:35:34;94901.28;;;23.26;60.15
30682;BME280;17439;48.092;11.842;2022-08-19T07:38:19;94911.06;;;23.38;59.63
30682;BME280;17439;48.092;11.842;2022-08-19T07:41:06;94915.31;;;23.46;59.49
30682;BME280;17439;48.092;11.842;2022-08-19T07:43:51;94913.69;;;23.52;59.20
30682;BME280;17439;48.092;11.842;2022-08-19T07:46:39;94920.00;;;23.56;59.00
30682;BME280;17439;48.092;11.842;2022-08-19T07:49:25;94922.72;;;23.60;59.36
30682;BME280;17439;48.092;11.842;2022-08-19T07:52:11;94929.00;;;23.64;59.25
30682;BME280;17439;48.092;11.842;2022-08-19T07:54:56;94927.00;;;23.68;59.13
30682;BME280;17439;48.092;11.842;2022-08-19T07:57:41;94938.84;;;23.72;58.74
30682;BME280;17439;48.092;11.842;2022-08-19T08:00:48;94934.84;;;23.73;58.43
30682;BME280;17439;48.092;11.842;2022-08-19T08:03:35;94927.78;;;23.72;58.52
30682;BME280;17439;48.092;11.842;2022-08-19T08:06:21;94934.06;;;23.72;58.43
30682;BME280;17439;48.092;11.842;2022-08-19T08:09:07;94937.63;;;23.73;58.40
30682;BME280;17439;48.092;11.842;2022-08-19T08:11:59;94937.25;;;23.71;58.46
30682;BME280;17439;48.092;11.842;2022-08-19T08:14:55;94946.38;;;23.68;58.37
30682;BME280;17439;48.092;11.842;2022-08-19T08:17:41;94940.47;;;23.66;58.31
30682;BME280;17439;48.092;11.842;2022-08-19T08:20:35;94936.94;;;23.62;58.61
30682;BME280;17439;48.092;11.842;2022-08-19T08:23:21;94949.63;;;23.59;58.64
30682;BME280;17439;48.092;11.842;2022-08-19T08:26:07;94958.31;;;23.54;59.20
30682;BME280;17439;48.092;11.842;2022-08-19T08:28:53;94960.72;;;23.52;59.18
30682;BME280;17439;48.092;11.842;2022-08-19T08:31:42;94959.53;;;23.49;59.72
30682;BME280;17439;48.092;11.842;2022-08-19T08:34:28;94959.19;;;23.47;59.39
30682;BME280;17439;48.092;11.842;2022-08-19T08:37:13;94959.97;;;23.44;59.15
30682;BME280;17439;48.092;11.842;2022-08-19T08:43:34;94968.34;;;23.37;62.05
30682;BME280;17439;48.092;11.842;2022-08-19T08:46:29;94964.78;;;23.36;60.79
30682;BME280;17439;48.092;11.842;2022-08-19T08:49:38;94973.88;;;23.33;60.83
30682;BME280;17439;48.092;11.842;2022-08-19T08:52:31;94970.34;;;23.33;60.77
30682;BME280;17439;48.092;11.842;2022-08-19T08:55:21;94979.81;;;23.35;60.63
30682;BME280;17439;48.092;11.842;2022-08-19T08:58:13;94977.03;;;23.35;61.18
30682;BME280;17439;48.092;11.842;2022-08-19T09:01:01;94977.81;;;23.36;60.48
30682;BME280;17439;48.092;11.842;2022-08-19T09:03:47;94982.16;;;23.37;60.70
30682;BME280;17439;48.092;11.842;2022-08-19T09:06:50;94969.13;;;23.38;62.21
30682;BME280;17439;48.092;11.842;2022-08-19T09:09:48;94972.66;;;23.42;61.54
30682;BME280;17439;48.092;11.842;2022-08-19T09:12:54;94982.06;;;23.48;61.88
30682;BME280;17439;48.092;11.842;2022-08-19T09:15:47;94981.25;;;23.54;61.42
30682;BME280;17439;48.092;11.842;2022-08-19T09:18:42;94971.34;;;23.61;62.07
30682;BME280;17439;48.092;11.842;2022-08-19T09:21:28;94957.03;;;23.69;60.95
30682;BME280;17439;48.092;11.842;2022-08-19T09:24:17;94961.72;;;23.76;60.61
30682;BME280;17439;48.092;11.842;2022-08-19T09:27:03;94971.19;;;23.79;60.43
30682;BME280;17439;48.092;11.842;2022-08-19T09:30:03;94988.53;;;23.83;60.45
30682;BME280;17439;48.092;11.842;2022-08-19T09:32:50;94987.75;;;23.86;60.41
30682;BME280;17439;48.092;11.842;2022-08-19T09:35:37;94982.56;;;23.92;60.38
30682;BME280;17439;48.092;11.842;2022-08-19T09:38:38;94974.19;;;23.99;61.64
30682;BME280;17439;48.092;11.842;2022-08-19T09:41:28;94967.38;;;24.11;60.82
30682;BME280;17439;48.092;11.842;2022-08-19T09:44:13;94965.69;;;24.20;60.79
30682;BME280;17439;48.092;11.842;2022-08-19T09:46:58;94961.22;;;24.30;60.68
30682;BME280;17439;48.092;11.842;2022-08-19T09:49:44;94961.47;;;24.43;60.37
30682;BME280;17439;48.092;11.842;2022-08-19T09:52:30;94961.72;;;24.56;59.54
30682;BME280;17439;48.092;11.842;2022-08-19T09:55:17;94964.41;;;24.67;60.08
30682;BME280;17439;48.092;11.842;2022-08-19T09:58:02;94963.50;;;24.77;59.99
30682;BME280;17439;48.092;11.842;2022-08-19T10:00:47;94966.94;;;24.88;60.02
30682;BME280;17439;48.092;11.842;2022-08-19T10:03:36;94979.44;;;25.00;59.24
30682;BME280;17439;48.092;11.842;2022-08-19T10:06:23;94978.13;;;25.12;58.95
30682;BME280;17439;48.092;11.842;2022-08-19T10:09:28;94972.41;;;25.23;58.76
30682;BME280;17439;48.092;11.842;2022-08-19T10:12:18;94978.59;;;25.34;58.76
30682;BME280;17439;48.092;11.842;2022-08-19T10:15:05;94962.22;;;25.43;58.16
30682;BME280;17439;48.092;11.842;2022-08-19T10:17:50;94972.81;;;25.52;57.75
30682;BME280;17439;48.092;11.842;2022-08-19T10:20:39;94971.91;;;25.59;57.27
30682;BME280;17439;48.092;11.842;2022-08-19T10:23:24;94966.69;;;25.64;57.13
30682;BME280;17439;48.092;11.842;2022-08-19T10:26:11;94975.78;;;25.65;56.95
30682;BME280;17439;48.092;11.842;2022-08-19T10:28:57;94962.69;;;25.65;57.04
30682;BME280;17439;48.092;11.842;2022-08-19T10:31:43;94964.19;;;25.70;56.71
30682;BME280;17439;48.092;11.842;2022-08-19T10:34:46;94956.53;;;25.78;56.76
30682;BME280;17439;48.092;11.842;2022-08-19T10:37:34;94966.38;;;25.82;57.41
30682;BME280;17439;48.092;11.842;2022-08-19T10:40:20;94970.09;;;25.96;57.25
30682;BME280;17439;48.092;11.842;2022-08-19T10:43:05;94960.00;;;26.09;56.91
30682;BME280;17439;48.092;11.842;2022-08-19T10:45:54;94968.13;;;26.20;55.67
30682;BME280;17439;48.092;11.842;2022-08-19T10:48:41;94965.59;;;26.29;55.56
30682;BME280;17439;48.092;11.842;2022-08-19T10:51:27;94954.78;;;26.35;54.57
30682;BME280;17439;48.092;11.842;2022-08-19T10:54:12;94943.66;;;26.35;53.85
30682;BME280;17439;48.092;11.842;2022-08-19T10:56:58;94952.84;;;26.32;53.78
30682;BME280;17439;48.092;11.842;2022-08-19T10:59:43;94948.56;;;26.27;53.53
30682;BME280;17439;48.092;11.842;2022-08-19T11:02:29;94937.97;;;26.22;53.66
30682;BME280;17439;48.092;11.842;2022-08-19T11:05:14;94935.66;;;26.17;54.03
30682;BME280;17439;48.092;11.842;2022-08-19T11:08:00;94916.19;;;26.17;54.27
30682;BME280;17439;48.092;11.842;2022-08-19T11:10:52;94921.22;;;26.25;54.34
30682;BME280;17439;48.092;11.842;2022-08-19T11:13:40;94920.63;;;26.34;53.75
30682;BME280;17439;48.092;11.842;2022-08-19T11:16:26;94915.72;;;26.42;53.42
30682;BME280;17439;48.092;11.842;2022-08-19T11:19:11;94929.84;;;26.51;53.39
30682;BME280;17439;48.092;11.842;2022-08-19T11:21:57;94935.28;;;26.58;53.29
30682;BME280;17439;48.092;11.842;2022-08-19T11:24:44;94927.19;;;26.64;53.39
30682;BME280;17439;48.092;11.842;2022-08-19T11:27:29;94919.09;;;26.73;52.61
30682;BME280;17439;48.092;11.842;2022-08-19T11:30:15;94918.97;;;26.81;52.32
30682;BME280;17439;48.092;11.842;2022-08-19T11:33:00;94914.44;;;26.87;52.06
30682;BME280;17439;48.092;11.842;2022-08-19T11:35:46;94917.94;;;26.91;52.27
30682;BME280;17439;48.092;11.842;2022-08-19T11:38:31;94922.66;;;26.94;51.84
30682;BME280;17439;48.092;11.842;2022-08-19T11:41:19;94921.00;;;26.96;50.93
30682;BME280;17439;48.092;11.842;2022-08-19T11:44:06;94920.22;;;26.96;51.03
30682;BME280;17439;48.092;11.842;2022-08-19T11:46:51;94920.22;;;26.96;51.08
30682;BME280;17439;48.092;11.842;2022-08-19T11:49:36;94917.84;;;26.94;50.59
30682;BME280;17439;48.092;11.842;2022-08-19T11:52:22;94919.53;;;26.92;50.78
30682;BME280;17439;48.092;11.842;2022-08-19T11:55:08;94916.38;;;26.90;50.79
30682;BME280;17439;48.092;11.842;2022-08-19T11:57:53;94910.13;;;26.86;51.14
30682;BME280;17439;48.092;11.842;2022-08-19T12:00:40;94922.00;;;26.86;50.81
30682;BME280;17439;48.092;11.842;2022-08-19T12:03:27;94919.75;;;26.81;50.58
30682;BME280;17439;48.092;11.842;2022-08-19T12:06:15;94921.88;;;26.73;50.26
30682;BME280;17439;48.092;11.842;2022-08-19T12:09:05;94928.38;;;26.67;49.93
30682;BME280;17439;48.092;11.842;2022-08-19T12:11:51;94933.69;;;26.57;49.60
30682;BME280;17439;48.092;11.842;2022-08-19T12:14:36;94928.34;;;26.47;49.66
30682;BME280;17439;48.092;11.842;2022-08-19T12:17:26;94928.19;;;26.34;49.79
30682;BME280;17439;48.092;11.842;2022-08-19T12:20:12;94933.81;;;26.30;50.39
30682;BME280;17439;48.092;11.842;2022-08-19T12:22:58;94929.13;;;26.27;50.97
30682;BME280;17439;48.092;11.842;2022-08-19T12:25:46;94935.03;;;26.29;51.15
30682;BME280;17439;48.092;11.842;2022-08-19T12:28:31;94920.72;;;26.31;50.94
30682;BME280;17439;48.092;11.842;2022-08-19T12:31:17;94934.31;;;26.25;50.98
30682;BME280;17439;48.092;11.842;2022-08-19T12:34:02;94936.44;;;26.17;51.30
30682;BME280;17439;48.092;11.842;2022-08-19T12:36:48;94947.31;;;26.08;51.13
30682;BME280;17439;48.092;11.842;2022-08-19T12:39:35;94945.53;;;25.94;50.85
30682;BME280;17439;48.092;11.842;2022-08-19T12:42:21;94961.25;;;25.81;51.54
30682;BME280;17439;48.092;11.842;2022-08-19T12:45:07;94966.22;;;25.66;51.70
30682;BME280;17439;48.092;11.842;2022-08-19T12:47:52;94957.06;;;25.45;51.68
30682;BME280;17439;48.092;11.842;2022-08-19T12:50:40;94960.94;;;25.21;53.07
30682;BME280;17439;48.092;11.842;2022-08-19T12:53:26;94972.00;;;24.93;53.29
30682;BME280;17439;48.092;11.842;2022-08-19T12:56:13;94965.16;;;24.71;54.42
30682;BME280;17439;48.092;11.842;2022-08-19T12:59:01;94969.69;;;24.54;55.46
30682;BME280;17439;48.092;11.842;2022-08-19T13:01:47;94961.13;;;24.41;56.26
30682;BME280;17439;48.092;11.842;2022-08-19T13:04:33;94969.84;;;24.39;56.21
30682;BME280;17439;48.092;11.842;2022-08-19T13:07:19;94965.91;;;24.37;57.20
30682;BME280;17439;48.092;11.842;2022-08-19T13:10:08;94966.66;;;24.41;56.80
30682;BME280;17439;48.092;11.842;2022-08-19T13:12:54;94962.97;;;24.51;57.13
30682;BME280;17439;48.092;11.842;2022-08-19T13:15:41;94968.44;;;24.62;57.47
30682;BME280;17439;48.092;11.842;2022-08-19T13:18:26;94959.63;;;24.71;56.82
30682;BME280;17439;48.092;11.842;2022-08-19T13:21:12;94964.19;;;24.85;57.40
30682;BME280;17439;48.092;11.842;2022-08-19T13:23:57;94965.22;;;24.98;56.55
30682;BME280;17439;48.092;11.842;2022-08-19T13:26:43;94952.03;;;25.06;55.82
30682;BME280;17439;48.092;11.842;2022-08-19T13:29:28;94950.31;;;25.15;55.73
30682;BME280;17439;48.092;11.842;2022-08-19T13:32:13;94950.22;;;25.23;55.25
30682;BME280;17439;48.092;11.842;2022-08-19T13:35:03;94950.91;;;25.30;55.14
30682;BME280;17439;48.092;11.842;2022-08-19T13:37:49;94949.25;;;25.37;54.40
30682;BME280;17439;48.092;11.842;2022-08-19T13:40:34;94948.34;;;25.43;53.83
30682;BME280;17439;48.092;11.842;2022-08-19T13:43:25;94945.53;;;25.47;53.38
30682;BME280;17439;48.092;11.842;2022-08-19T13:46:12;94948.94;;;25.58;53.79
30682;BME280;17439;48.092;11.842;2022-08-19T13:48:57;94943.19;;;25.69;53.45
30682;BME280;17439;48.092;11.842;2022-08-19T13:51:43;94954.47;;;25.82;53.19
30682;BME280;17439;48.092;11.842;2022-08-19T13:54:28;94951.53;;;25.93;52.65
30682;BME280;17439;48.092;11.842;2022-08-19T13:57:14;94950.63;;;25.99;52.13
30682;BME280;17439;48.092;11.842;2022-08-19T14:00:00;94952.94;;;26.04;51.50
30682;BME280;17439;48.092;11.842;2022-08-19T14:02:47;94955.22;;;26.10;51.40
30682;BME280;17439;48.092;11.842;2022-08-19T14:05:33;94960.66;;;26.17;51.18
30682;BME280;17439;48.092;11.842;2022-08-19T14:08:18;94946.63;;;26.24;51.36
30682;BME280;17439;48.092;11.842;2022-08-19T14:11:03;94952.34;;;26.37;50.57
30682;BME280;17439;48.092;11.842;2022-08-19T14:13:50;94946.25;;;26.46;50.39
30682;BME280;17439;48.092;11.842;2022-08-19T14:16:35;94947.25;;;26.55;50.13
30682;BME280;17439;48.092;11.842;2022-08-19T14:19:20;94946.31;;;26.62;48.79
30682;BME280;17439;48.092;11.842;2022-08-19T14:22:07;94947.88;;;26.63;48.51
30682;BME280;17439;48.092;11.842;2022-08-19T14:24:54;94950.28;;;26.61;48.62
30682;BME280;17439;48.092;11.842;2022-08-19T14:27:40;94956.66;;;26.61;49.29
30682;BME280;17439;48.092;11.842;2022-08-19T14:30:29;94948.44;;;26.54;49.80
30682;BME280;17439;48.092;11.842;2022-08-19T14:33:14;94958.56;;;26.45;49.74
30682;BME280;17439;48.092;11.842;2022-08-19T14:36:00;94956.31;;;26.36;49.50
30682;BME280;17439;48.092;11.842;2022-08-19T14:38:45;94947.84;;;26.23;49.76
30682;BME280;17439;48.092;11.842;2022-08-19T14:41:31;94954.81;;;26.11;50.43